Arcola, Virginia
Current Conditions -  °F | °C
As of 10:52 PM on Saturday 25 Oct 2014 (Local Time) from KIAD Reporting Station
Clear Clear  
Wind Chill: 54°   Ceiling: Unl
Heat Index: 54°   Visibility: 10mi
Dew Point: 43°   Wind: 3mph
Humidity: 66%   Direction: 200°SSW
Pressure: 29.74"   Gusts: NA
Location:  38.95°N, 77.53°W
Report Text: KIAD 260252Z 20003KT 10SM CLR 12/06 A2974 RMK AO2 SLP068 T01220061 58003
Loading
Personal Weather Stations






























Interactive Weather Map
Tropical Storm Tracking
New forecast layout! Learn more

10-Day Weather Forecast

Advertisements
Track Severe Weather on mobile